Terminal Aerodrome Forecast
Issued by NWS Jacksonville, FL

Home | Current Version | Previous Version | Text Only | Print | Product List | Glossary On
Versions: 1 2 3 4 5 6 7 8 9 10 11 12 13 14 15 16 17 18
170
FTUS42 KJAX 260700 AAB
TAFJAX
TAF AMD
KJAX 260700Z 2607/2706 VRB03KT P6SM SCT020 SCT120 BKN200
      TEMPO 2607/2610 BKN007
     FM261400 32004KT P6SM VCSH SCT035 BKN060 BKN200
     FM261700 35005KT P6SM VCTS SCT030CB BKN040 OVC200 PROB30
      2617/2622 VRB15G25KT 3SM +TSRA BR SCT010 BKN020CB OVC040
     FM270200 08003KT P6SM VCSH SCT040 BKN100 OVC250=

USA.gov is the U.S. government's official web portal to all federal, state and local government web resources and services.